createdAt,value
2022-10-22T00:02:22.269Z,7.65
2022-10-22T00:04:50.169Z,9.23
2022-10-22T00:07:19.138Z,10.93
2022-10-22T00:09:46.494Z,13.15
2022-10-22T00:12:14.982Z,10.80
2022-10-22T00:14:42.880Z,10.52
2022-10-22T00:17:11.594Z,9.95
2022-10-22T00:19:39.638Z,8.80
2022-10-22T00:22:08.042Z,10.55
2022-10-22T00:24:37.926Z,9.60
2022-10-22T00:27:06.387Z,10.43
2022-10-22T00:29:33.808Z,8.77
2022-10-22T00:32:01.076Z,10.13
2022-10-22T00:34:28.764Z,10.85
2022-10-22T00:36:56.170Z,7.53
2022-10-22T00:39:25.102Z,10.82
2022-10-22T00:41:53.711Z,9.60
2022-10-22T00:45:00.772Z,10.32
2022-10-22T00:47:32.045Z,10.73
2022-10-22T00:50:00.579Z,9.57
2022-10-22T00:52:28.605Z,10.55
2022-10-22T00:54:55.704Z,12.05
2022-10-22T00:57:23.073Z,11.15
2022-10-22T00:59:50.111Z,11.35
2022-10-22T01:02:17.443Z,10.13
2022-10-22T01:04:45.176Z,8.43
2022-10-22T01:07:18.884Z,10.02
2022-10-22T01:10:13.451Z,10.55
2022-10-22T01:12:40.566Z,9.38
2022-10-22T01:15:29.633Z,8.60
2022-10-22T01:18:10.956Z,9.45
2022-10-22T01:20:37.743Z,11.32
2022-10-22T01:23:26.625Z,10.68
2022-10-22T01:29:07.504Z,10.87
2022-10-22T01:31:46.787Z,11.60
2022-10-22T01:34:18.452Z,10.70
2022-10-22T01:36:46.995Z,10.52
2022-10-22T01:39:16.464Z,9.50
2022-10-22T01:41:44.884Z,9.07
2022-10-22T01:44:29.857Z,12.27
2022-10-22T01:47:14.157Z,11.68
2022-10-22T01:50:06.725Z,11.30
2022-10-22T01:53:07.198Z,9.23
2022-10-22T01:55:43.690Z,11.07
2022-10-22T01:58:19.499Z,10.90
2022-10-22T02:01:00.696Z,9.80
2022-10-22T02:03:45.576Z,11.32
2022-10-22T02:06:19.121Z,10.43
2022-10-22T02:08:48.948Z,9.33
2022-10-22T02:11:16.820Z,10.15
2022-10-22T02:13:48.427Z,9.52
2022-10-22T02:16:30.585Z,10.90
2022-10-22T02:19:06.181Z,9.95
2022-10-22T02:21:33.120Z,10.53
2022-10-22T02:24:00.666Z,11.35
2022-10-22T02:26:39.991Z,9.27
2022-10-22T02:29:20.421Z,10.77
2022-10-22T02:31:51.444Z,10.65
2022-10-22T02:34:24.302Z,10.37
2022-10-22T02:36:52.568Z,10.88
2022-10-22T02:39:20.953Z,10.23
2022-10-22T02:41:48.519Z,10.20
2022-10-22T02:44:15.269Z,9.65
2022-10-22T02:46:43.681Z,10.63
2022-10-22T02:49:10.464Z,10.88
2022-10-22T02:51:37.371Z,9.13
2022-10-22T02:54:04.491Z,9.45
2022-10-22T02:56:31.490Z,9.02
2022-10-22T02:58:58.241Z,10.60
2022-10-22T03:01:25.311Z,9.68
2022-10-22T03:03:52.162Z,8.98
2022-10-22T03:06:19.247Z,10.20
2022-10-22T03:08:47.018Z,8.23
2022-10-22T03:11:13.803Z,9.57
2022-10-22T03:13:40.814Z,9.23
2022-10-22T03:16:07.732Z,9.98
2022-10-22T03:18:34.562Z,9.35
2022-10-22T03:21:49.074Z,11.38
2022-10-22T03:24:21.822Z,10.47
2022-10-22T03:26:50.502Z,11.13
2022-10-22T03:29:17.672Z,9.85
2022-10-22T03:31:44.490Z,9.95
2022-10-22T03:34:11.234Z,9.55
2022-10-22T03:36:38.684Z,9.10
2022-10-22T03:39:06.415Z,11.23
2022-10-22T03:41:34.071Z,8.57
2022-10-22T03:44:03.060Z,9.35
2022-10-22T03:46:29.935Z,9.27
2022-10-22T03:48:56.987Z,11.70
2022-10-22T03:51:26.157Z,9.77
2022-10-22T03:53:53.056Z,7.22
2022-10-22T03:56:20.063Z,9.77
2022-10-22T03:58:46.917Z,10.18
2022-10-22T04:01:15.000Z,10.30
2022-10-22T04:03:41.806Z,9.85
2022-10-22T04:06:11.087Z,10.82
2022-10-22T04:08:40.285Z,10.05
2022-10-22T04:11:07.734Z,8.98
2022-10-22T04:13:35.086Z,10.53
2022-10-22T04:16:07.880Z,9.23
2022-10-22T04:18:34.775Z,10.27
2022-10-22T04:21:01.989Z,10.90
2022-10-22T04:23:28.867Z,10.57
2022-10-22T04:26:05.208Z,10.50
2022-10-22T04:28:32.341Z,9.23
2022-10-22T04:30:59.088Z,9.70
2022-10-22T04:33:26.027Z,9.43
2022-10-22T04:35:52.826Z,10.70
2022-10-22T04:38:19.711Z,11.07
2022-10-22T04:40:46.543Z,10.02
2022-10-22T04:43:13.351Z,10.02
2022-10-22T04:45:40.150Z,10.02
2022-10-22T04:48:07.237Z,9.70
2022-10-22T04:50:34.167Z,9.93
2022-10-22T04:53:01.760Z,10.48
2022-10-22T04:55:28.462Z,10.55
2022-10-22T04:57:55.223Z,11.48
2022-10-22T05:00:21.973Z,14.43
2022-10-22T05:02:50.070Z,10.23
2022-10-22T05:05:16.970Z,11.63
2022-10-22T05:07:44.036Z,13.00
2022-10-22T05:10:11.010Z,9.55
2022-10-22T05:12:37.810Z,11.13
2022-10-22T05:15:04.824Z,10.87
2022-10-22T05:17:31.583Z,10.63
2022-10-22T05:19:58.375Z,12.48
2022-10-22T05:22:25.269Z,9.45
2022-10-22T05:24:52.059Z,9.88
2022-10-22T05:29:50.496Z,12.93
2022-10-22T05:32:17.359Z,9.73
2022-10-22T05:34:44.143Z,9.75
2022-10-22T05:37:11.183Z,11.10
2022-10-22T05:39:37.924Z,13.23
2022-10-22T05:42:04.924Z,11.50
2022-10-22T05:44:31.699Z,10.80
2022-10-22T05:46:58.566Z,12.48
2022-10-22T05:49:25.333Z,11.55
2022-10-22T05:51:52.155Z,12.27
2022-10-22T05:54:20.764Z,13.25
2022-10-22T05:56:48.185Z,13.38
2022-10-22T05:59:15.415Z,13.25
2022-10-22T06:01:43.177Z,13.30
2022-10-22T06:04:12.388Z,11.97
2022-10-22T06:06:46.635Z,11.80
2022-10-22T06:09:20.263Z,10.40
2022-10-22T06:11:47.917Z,11.32
2022-10-22T06:14:15.318Z,12.88
2022-10-22T06:16:42.105Z,10.07
2022-10-22T06:19:14.050Z,10.43
2022-10-22T06:21:40.817Z,13.15
2022-10-22T06:24:09.278Z,10.77
2022-10-22T06:26:36.056Z,10.93
2022-10-22T06:29:03.273Z,10.50
2022-10-22T06:31:31.152Z,12.93
2022-10-22T06:33:58.039Z,13.13
2022-10-22T06:36:24.906Z,11.48
2022-10-22T06:38:53.741Z,14.32
2022-10-22T06:41:23.038Z,10.80
2022-10-22T06:43:54.187Z,12.95
2022-10-22T06:46:22.285Z,11.65
2022-10-22T06:48:51.496Z,11.95
2022-10-22T06:51:19.304Z,16.92
2022-10-22T06:53:46.121Z,12.37
2022-10-22T06:56:19.878Z,14.93
2022-10-22T06:58:48.176Z,12.85
2022-10-22T07:01:17.269Z,14.60
2022-10-22T07:03:44.100Z,11.48
2022-10-22T07:06:13.493Z,12.90
2022-10-22T07:08:41.584Z,13.70
2022-10-22T07:11:14.504Z,11.15
2022-10-22T07:13:41.649Z,12.75
2022-10-22T07:16:09.763Z,9.93
2022-10-22T07:18:39.026Z,12.37
2022-10-22T07:21:07.051Z,10.55
2022-10-22T07:23:34.364Z,12.38
2022-10-22T07:26:01.699Z,11.05
2022-10-22T07:28:29.037Z,12.20
2022-10-22T07:30:55.839Z,11.13
2022-10-22T07:33:22.661Z,11.80
2022-10-22T07:35:49.403Z,13.02
2022-10-22T07:38:16.244Z,11.82
2022-10-22T07:40:43.171Z,12.20
2022-10-22T07:43:09.977Z,11.37
2022-10-22T07:45:36.845Z,12.05
2022-10-22T07:48:03.803Z,13.05
2022-10-22T07:50:30.647Z,12.48
2022-10-22T07:52:58.331Z,14.05
2022-10-22T07:55:26.093Z,15.77
2022-10-22T07:57:53.223Z,14.38
2022-10-22T08:00:23.057Z,13.07
2022-10-22T08:02:52.240Z,14.25
2022-10-22T08:05:19.386Z,15.55
2022-10-22T08:07:46.316Z,13.60
2022-10-22T08:10:13.568Z,21.58
2022-10-22T08:12:42.163Z,13.70
2022-10-22T08:15:10.184Z,14.02
2022-10-22T08:17:37.092Z,11.02
2022-10-22T08:20:04.761Z,11.43
2022-10-22T08:22:31.599Z,14.35
2022-10-22T08:24:58.415Z,12.90
2022-10-22T08:27:25.175Z,12.43
2022-10-22T08:29:51.982Z,12.85
2022-10-22T08:32:18.847Z,14.33
2022-10-22T08:34:45.637Z,14.38
2022-10-22T08:37:13.226Z,14.65
2022-10-22T08:39:41.277Z,12.98
2022-10-22T08:42:29.758Z,12.25
2022-10-22T08:45:06.767Z,16.27
2022-10-22T08:47:59.946Z,12.95
2022-10-22T08:50:38.646Z,12.35
2022-10-22T08:53:15.571Z,17.27
2022-10-22T08:55:42.649Z,12.48
2022-10-22T08:58:30.411Z,12.47
2022-10-22T09:01:01.792Z,18.23
2022-10-22T09:03:38.338Z,13.13
2022-10-22T09:06:07.845Z,13.63
2022-10-22T09:08:37.315Z,14.05
2022-10-22T09:11:12.497Z,15.17
2022-10-22T09:13:42.539Z,13.75
2022-10-22T09:16:17.981Z,16.08
2022-10-22T09:19:23.049Z,17.52
2022-10-22T09:22:15.181Z,18.85
2022-10-22T09:24:52.470Z,15.80
2022-10-22T09:27:30.638Z,16.42
2022-10-22T09:29:57.776Z,13.23
2022-10-22T09:32:26.390Z,16.80
2022-10-22T09:34:57.033Z,14.25
2022-10-22T09:37:28.153Z,14.77
2022-10-22T09:39:57.428Z,13.18
2022-10-22T09:42:24.825Z,15.00
2022-10-22T09:44:59.761Z,14.23
2022-10-22T09:47:42.954Z,14.90
2022-10-22T09:50:41.569Z,14.93
2022-10-22T09:53:29.077Z,13.77
2022-10-22T09:55:59.062Z,13.63
2022-10-22T09:58:26.787Z,14.27
2022-10-22T10:01:00.054Z,15.65
2022-10-22T10:03:31.866Z,17.10
2022-10-22T10:06:04.796Z,16.48
2022-10-22T10:08:33.661Z,17.25
2022-10-22T10:11:07.836Z,18.55
2022-10-22T10:13:52.880Z,16.70
2022-10-22T10:16:47.665Z,15.70
2022-10-22T10:19:36.060Z,16.25
2022-10-22T10:22:21.331Z,17.38
2022-10-22T10:25:10.286Z,16.30
2022-10-22T10:28:10.725Z,18.15
2022-10-22T10:30:48.719Z,18.40
2022-10-22T10:33:31.466Z,17.40
2022-10-22T10:36:17.656Z,14.85
2022-10-22T10:39:03.553Z,16.05
2022-10-22T10:41:49.022Z,18.00
2022-10-22T10:44:31.987Z,15.33
2022-10-22T10:47:16.194Z,15.32
2022-10-22T10:49:43.714Z,15.52
2022-10-22T10:52:30.812Z,15.20
2022-10-22T10:55:25.316Z,15.82
2022-10-22T10:57:54.846Z,17.13
2022-10-22T11:00:22.498Z,17.38
2022-10-22T11:03:26.747Z,17.00
2022-10-22T11:05:57.978Z,14.65
2022-10-22T11:08:43.972Z,16.88
2022-10-22T11:11:33.132Z,18.47
2022-10-22T11:14:11.449Z,18.50
2022-10-22T11:16:57.779Z,16.60
2022-10-22T11:19:50.112Z,14.98
2022-10-22T11:23:00.245Z,16.25
2022-10-22T11:25:40.861Z,16.00
2022-10-22T11:28:22.762Z,16.65
2022-10-22T11:31:00.358Z,17.65
2022-10-22T11:33:33.229Z,19.15
2022-10-22T11:36:02.955Z,15.32
2022-10-22T11:38:32.813Z,19.33
2022-10-22T11:41:12.321Z,17.17
2022-10-22T11:43:55.561Z,14.80
2022-10-22T11:46:22.382Z,13.25
2022-10-22T11:49:13.770Z,11.15
2022-10-22T11:51:42.430Z,4.87
2022-10-22T11:54:24.191Z,2.83
2022-10-22T11:57:16.334Z,2.08
2022-10-22T11:59:43.082Z,1.77
2022-10-22T12:02:43.780Z,2.58
2022-10-22T12:05:22.874Z,2.90
2022-10-22T12:08:15.918Z,3.10
2022-10-22T12:10:57.622Z,2.65
2022-10-22T12:13:28.076Z,2.00
2022-10-22T12:15:59.304Z,2.15
2022-10-22T12:18:31.498Z,2.00
2022-10-22T12:20:58.432Z,1.50
2022-10-22T12:23:32.154Z,2.30
2022-10-22T12:25:58.923Z,2.63
2022-10-22T12:28:25.746Z,2.35
2022-10-22T12:30:52.507Z,4.05
2022-10-22T12:33:22.185Z,3.13
2022-10-22T12:35:50.700Z,2.60
2022-10-22T12:38:21.361Z,2.38
2022-10-22T12:40:50.537Z,3.03
2022-10-22T12:43:20.317Z,2.95
2022-10-22T12:45:50.487Z,2.33
2022-10-22T12:48:40.260Z,3.88
2022-10-22T12:51:09.155Z,3.15
2022-10-22T12:53:38.488Z,4.97
2022-10-22T12:56:13.410Z,2.92
2022-10-22T12:58:43.468Z,2.38
2022-10-22T13:01:15.883Z,3.47
2022-10-22T13:03:48.697Z,1.98
2022-10-22T13:06:18.706Z,2.35
2022-10-22T13:08:55.566Z,1.70
2022-10-22T13:11:22.555Z,2.22
2022-10-22T13:13:49.330Z,1.65
2022-10-22T13:16:22.717Z,2.00
2022-10-22T13:18:51.402Z,2.55
2022-10-22T13:21:38.621Z,2.53
2022-10-22T13:24:23.350Z,2.17
2022-10-22T13:26:53.143Z,2.33
2022-10-22T13:29:22.607Z,1.90
2022-10-22T13:31:52.271Z,3.88
2022-10-22T13:34:25.066Z,2.50
2022-10-22T13:36:52.201Z,3.67
2022-10-22T13:39:21.872Z,1.70
2022-10-22T13:41:49.774Z,1.80
2022-10-22T13:44:17.900Z,2.72
2022-10-22T13:46:45.833Z,2.22
2022-10-22T13:49:19.032Z,1.85
2022-10-22T13:51:46.808Z,3.95
2022-10-22T13:54:18.043Z,1.70
2022-10-22T13:56:45.893Z,2.95
2022-10-22T13:59:13.131Z,1.80
2022-10-22T14:01:40.752Z,3.28
2022-10-22T14:04:12.562Z,1.50
2022-10-22T14:06:40.073Z,2.35
2022-10-22T14:09:13.896Z,2.78
2022-10-22T14:11:40.995Z,2.25
2022-10-22T14:14:07.895Z,2.28
2022-10-22T14:16:35.285Z,1.77
2022-10-22T14:19:02.794Z,2.58
2022-10-22T14:21:35.106Z,3.20
2022-10-22T14:24:02.166Z,2.35
2022-10-22T14:26:32.138Z,1.90
2022-10-22T14:29:15.422Z,1.63
2022-10-22T14:31:44.592Z,1.63
2022-10-22T14:34:14.408Z,1.83
2022-10-22T14:36:41.810Z,1.98
2022-10-22T14:39:08.936Z,2.45
2022-10-22T14:41:37.170Z,1.48
2022-10-22T14:44:04.296Z,1.58
2022-10-22T14:46:31.179Z,2.03
2022-10-22T14:48:58.337Z,1.48
2022-10-22T14:51:25.271Z,2.35
2022-10-22T14:53:52.209Z,1.02
2022-10-22T14:56:20.118Z,1.23
2022-10-22T14:58:47.350Z,2.33
2022-10-22T15:01:14.393Z,1.15
2022-10-22T15:03:41.352Z,1.92
2022-10-22T15:06:08.190Z,1.15
2022-10-22T15:08:35.185Z,1.38
2022-10-22T15:11:05.386Z,3.65
2022-10-22T15:13:33.054Z,2.35
2022-10-22T15:16:00.491Z,1.48
2022-10-22T15:18:29.074Z,2.35
2022-10-22T15:21:01.483Z,2.03
2022-10-22T15:23:29.254Z,2.10
2022-10-22T15:25:56.866Z,1.93
2022-10-22T15:28:24.569Z,1.10
2022-10-22T15:30:59.733Z,1.23
2022-10-22T15:33:28.626Z,2.15
2022-10-22T15:35:56.771Z,1.77
2022-10-22T15:41:05.291Z,1.65
2022-10-22T15:43:34.841Z,0.73
2022-10-22T15:46:16.797Z,1.67
2022-10-22T15:48:45.063Z,0.80
2022-10-22T15:51:14.949Z,1.58
2022-10-22T15:53:43.055Z,2.15
2022-10-22T15:56:11.268Z,1.08
2022-10-22T15:58:39.021Z,0.90
2022-10-22T16:01:12.501Z,1.75
2022-10-22T16:03:40.239Z,1.60
2022-10-22T16:06:08.508Z,2.47
2022-10-22T16:08:35.450Z,1.00
2022-10-22T16:11:02.549Z,0.80
2022-10-22T16:13:29.430Z,1.10
2022-10-22T16:15:56.470Z,0.80
2022-10-22T16:18:23.811Z,0.80
2022-10-22T16:20:50.692Z,1.15
2022-10-22T16:23:20.023Z,0.80
2022-10-22T16:25:46.955Z,1.42
2022-10-22T16:28:14.246Z,0.80
2022-10-22T16:30:41.257Z,3.17
2022-10-22T16:33:10.082Z,1.92
2022-10-22T16:35:42.503Z,2.15
2022-10-22T16:38:11.303Z,1.70
2022-10-22T16:40:38.412Z,1.40
2022-10-22T16:43:05.739Z,1.00
2022-10-22T16:45:32.972Z,1.02
2022-10-22T16:47:59.874Z,2.13
2022-10-22T16:50:27.238Z,2.75
2022-10-22T16:52:54.695Z,1.02
2022-10-22T16:55:21.845Z,2.05
2022-10-22T16:57:52.344Z,2.58
2022-10-22T17:00:21.252Z,2.60
2022-10-22T17:02:53.981Z,1.42
2022-10-22T17:05:21.846Z,2.03
2022-10-22T17:07:49.847Z,1.60
2022-10-22T17:10:18.888Z,2.63
2022-10-22T17:12:48.016Z,1.40
2022-10-22T17:15:15.878Z,2.08
2022-10-22T17:17:43.225Z,1.73
2022-10-22T17:20:12.179Z,3.67
2022-10-22T17:22:40.048Z,2.25
2022-10-22T17:25:25.803Z,2.15
2022-10-22T17:27:53.974Z,1.45
2022-10-22T17:30:24.985Z,1.57
2022-10-22T17:32:55.696Z,3.65
2022-10-22T17:35:23.293Z,1.80
2022-10-22T17:37:52.351Z,1.85
2022-10-22T17:40:21.875Z,1.80
2022-10-22T17:42:49.380Z,2.27
2022-10-22T17:45:17.262Z,1.58
2022-10-22T17:47:45.080Z,1.65
2022-10-22T17:50:12.742Z,2.05
2022-10-22T17:52:40.456Z,4.22
2022-10-22T17:55:12.873Z,1.60
2022-10-22T17:57:40.934Z,2.20
2022-10-22T18:00:10.206Z,1.70
2022-10-22T18:02:37.873Z,1.90
2022-10-22T18:05:05.523Z,2.75
2022-10-22T18:07:32.651Z,2.10
2022-10-22T18:09:59.923Z,3.88
2022-10-22T18:12:27.221Z,2.20
2022-10-22T18:14:57.123Z,2.55
2022-10-22T18:17:26.760Z,2.83
2022-10-22T18:19:55.623Z,4.90
2022-10-22T18:22:23.324Z,4.05
2022-10-22T18:24:50.844Z,4.13
2022-10-22T18:27:19.722Z,4.10
2022-10-22T18:29:50.385Z,2.50
2022-10-22T18:32:18.949Z,2.13
2022-10-22T18:34:46.379Z,1.85
2022-10-22T18:37:13.919Z,3.53
2022-10-22T18:39:43.465Z,3.67
2022-10-22T18:42:11.258Z,2.72
2022-10-22T18:44:38.619Z,2.73
2022-10-22T18:47:07.118Z,2.58
2022-10-22T18:49:34.950Z,2.30
2022-10-22T18:52:03.186Z,2.67
2022-10-22T18:54:31.136Z,2.60
2022-10-22T18:57:02.571Z,3.00
2022-10-22T18:59:31.227Z,4.68
2022-10-22T19:01:59.005Z,1.92
2022-10-22T19:04:29.298Z,3.17
2022-10-22T19:06:57.291Z,2.50
2022-10-22T19:09:26.499Z,3.20
2022-10-22T19:11:53.997Z,3.13
2022-10-22T19:14:21.046Z,3.78
2022-10-22T19:16:49.095Z,1.75
2022-10-22T19:19:19.485Z,2.50
2022-10-22T19:21:47.197Z,2.20
2022-10-22T19:24:16.999Z,2.58
2022-10-22T19:26:45.727Z,2.60
2022-10-22T19:29:16.321Z,1.90
2022-10-22T19:31:43.934Z,2.75
2022-10-22T19:34:12.149Z,2.70
2022-10-22T19:36:39.975Z,2.97
2022-10-22T19:39:07.391Z,2.50
2022-10-22T19:41:35.261Z,2.65
2022-10-22T19:44:02.905Z,1.55
2022-10-22T19:46:32.112Z,2.27
2022-10-22T19:49:00.098Z,1.90
2022-10-22T19:51:30.083Z,3.58
2022-10-22T19:54:06.514Z,1.48
2022-10-22T19:56:35.859Z,1.95
2022-10-22T19:59:05.000Z,1.65
2022-10-22T20:01:32.405Z,1.20
2022-10-22T20:03:59.453Z,2.10
2022-10-22T20:06:27.329Z,1.85
2022-10-22T20:08:56.159Z,1.20
2022-10-22T20:11:27.692Z,1.67
2022-10-22T20:13:56.134Z,1.45
2022-10-22T20:16:25.723Z,1.83
2022-10-22T20:18:52.905Z,1.38
2022-10-22T20:21:20.497Z,2.60
2022-10-22T20:23:53.466Z,4.40
2022-10-22T20:26:21.534Z,3.15
2022-10-22T20:28:48.655Z,1.85
2022-10-22T20:31:19.283Z,1.95
2022-10-22T20:33:47.873Z,3.67
2022-10-22T20:36:21.024Z,1.27
2022-10-22T20:38:48.319Z,1.40
2022-10-22T20:41:22.265Z,1.40
2022-10-22T20:43:51.706Z,1.63
2022-10-22T20:46:26.202Z,2.53
2022-10-22T20:48:58.532Z,2.63
2022-10-22T20:51:25.963Z,1.40
2022-10-22T20:53:53.318Z,1.17
2022-10-22T20:56:21.306Z,1.77
2022-10-22T20:58:50.113Z,1.58
2022-10-22T21:01:21.842Z,1.13
2022-10-22T21:03:51.423Z,1.98
2022-10-22T21:06:20.230Z,1.38
2022-10-22T21:08:47.161Z,1.63
2022-10-22T21:11:14.166Z,0.80
2022-10-22T21:13:41.036Z,0.82
2022-10-22T21:16:10.688Z,1.35
2022-10-22T21:18:37.835Z,1.95
2022-10-22T21:21:06.147Z,1.27
2022-10-22T21:23:35.316Z,2.30
2022-10-22T21:26:02.470Z,2.60
2022-10-22T21:30:57.416Z,1.60
2022-10-22T21:33:24.299Z,1.50
2022-10-22T21:35:53.220Z,1.75
2022-10-22T21:38:20.848Z,1.97
2022-10-22T21:40:47.858Z,1.10
2022-10-22T21:43:15.786Z,1.40
2022-10-22T21:45:43.129Z,1.30
2022-10-22T21:48:11.608Z,1.23
2022-10-22T21:50:40.236Z,2.07
2022-10-22T21:53:09.248Z,1.60
2022-10-22T21:55:40.692Z,1.27
2022-10-22T21:58:14.646Z,1.58
2022-10-22T22:00:54.356Z,1.38
2022-10-22T22:03:21.390Z,1.77
2022-10-22T22:05:48.383Z,2.05
2022-10-22T22:08:15.781Z,0.77
2022-10-22T22:10:43.287Z,2.45
2022-10-22T22:13:10.241Z,1.15
2022-10-22T22:15:37.040Z,2.90
2022-10-22T22:18:04.062Z,2.10
2022-10-22T22:20:30.863Z,2.08
2022-10-22T22:22:57.781Z,1.17
2022-10-22T22:25:24.503Z,1.17
2022-10-22T22:27:51.515Z,2.03
2022-10-22T22:30:18.234Z,1.63
2022-10-22T22:32:45.013Z,1.80
2022-10-22T22:35:11.832Z,1.63
2022-10-22T22:37:38.843Z,1.20
2022-10-22T22:40:06.423Z,2.20
2022-10-22T22:42:33.314Z,0.95
2022-10-22T22:45:00.114Z,0.95
2022-10-22T22:47:26.896Z,0.93
2022-10-22T22:49:53.806Z,0.80
2022-10-22T22:54:52.525Z,1.52
2022-10-22T22:57:19.256Z,0.95
2022-10-22T22:59:49.406Z,0.98
2022-10-22T23:02:16.374Z,1.13
2022-10-22T23:04:43.285Z,1.07
2022-10-22T23:07:10.467Z,0.93
2022-10-22T23:09:37.306Z,1.05
2022-10-22T23:12:04.307Z,1.30
2022-10-22T23:14:31.227Z,2.05
2022-10-22T23:16:57.973Z,1.92
2022-10-22T23:19:24.754Z,1.63
2022-10-22T23:21:54.392Z,1.25
2022-10-22T23:24:24.377Z,1.77
2022-10-22T23:26:53.357Z,1.38
2022-10-22T23:29:26.438Z,1.70
2022-10-22T23:31:54.535Z,2.75
2022-10-22T23:34:24.917Z,2.40
2022-10-22T23:36:52.001Z,2.10
2022-10-22T23:39:22.512Z,2.47
2022-10-22T23:41:49.610Z,2.13
2022-10-22T23:44:16.491Z,2.42
2022-10-22T23:46:43.788Z,4.35
2022-10-22T23:49:11.750Z,2.78
2022-10-22T23:51:40.091Z,2.97
2022-10-22T23:54:10.701Z,4.13
2022-10-22T23:56:38.340Z,2.10
2022-10-22T23:59:05.896Z,2.00
